createdAt,value
2023-01-23T00:00:01.271Z,1.17
2023-01-23T00:02:19.605Z,1.20
2023-01-23T00:04:36.809Z,1.18
2023-01-23T00:06:54.764Z,1.16
2023-01-23T00:09:12.425Z,1.19
2023-01-23T00:11:30.512Z,1.20
2023-01-23T00:13:48.737Z,1.19
2023-01-23T00:16:06.052Z,1.17
2023-01-23T00:18:23.515Z,1.19
2023-01-23T00:20:40.822Z,1.19
2023-01-23T00:22:58.157Z,1.17
2023-01-23T00:25:15.513Z,1.18
2023-01-23T00:27:32.912Z,1.17
2023-01-23T00:29:50.177Z,1.17
2023-01-23T00:32:07.143Z,1.17
2023-01-23T00:34:24.298Z,1.17
2023-01-23T00:36:42.399Z,1.15
2023-01-23T00:38:59.725Z,1.18
2023-01-23T00:41:16.787Z,1.17
2023-01-23T00:43:37.080Z,1.16
2023-01-23T00:45:54.456Z,1.14
2023-01-23T00:48:12.113Z,1.14
2023-01-23T00:50:29.103Z,1.14
2023-01-23T00:52:47.565Z,1.15
2023-01-23T00:55:04.590Z,1.14
2023-01-23T00:57:21.889Z,1.14
2023-01-23T00:59:39.022Z,1.15
2023-01-23T01:01:56.497Z,1.16
2023-01-23T01:04:13.862Z,1.15
2023-01-23T01:06:31.393Z,1.17
2023-01-23T01:08:48.491Z,1.15
2023-01-23T01:11:05.939Z,1.14
2023-01-23T01:13:23.387Z,1.12
2023-01-23T01:15:40.347Z,1.11
2023-01-23T01:18:00.122Z,1.11
2023-01-23T01:20:17.676Z,1.13
2023-01-23T01:22:35.321Z,1.12
2023-01-23T01:24:52.473Z,1.13
2023-01-23T01:27:09.791Z,1.11
2023-01-23T01:29:29.198Z,1.12
2023-01-23T01:31:47.698Z,1.15
2023-01-23T01:34:05.123Z,1.15
2023-01-23T01:36:23.400Z,1.15
2023-01-23T01:38:41.414Z,1.14
2023-01-23T01:40:59.768Z,1.14
2023-01-23T01:43:16.765Z,1.16
2023-01-23T01:45:33.745Z,1.17
2023-01-23T01:47:52.000Z,1.17
2023-01-23T01:50:11.465Z,1.17
2023-01-23T01:52:29.638Z,1.17
2023-01-23T01:54:46.630Z,1.17
2023-01-23T01:57:04.165Z,1.16
2023-01-23T01:59:21.251Z,1.15
2023-01-23T02:01:39.262Z,1.15
2023-01-23T02:03:57.330Z,1.15
2023-01-23T02:06:14.470Z,1.12
2023-01-23T02:08:31.652Z,1.14
2023-01-23T02:10:49.681Z,1.15
2023-01-23T02:13:06.756Z,1.17
2023-01-23T02:15:24.121Z,1.16
2023-01-23T02:17:41.570Z,1.15
2023-01-23T02:19:58.664Z,1.14
2023-01-23T02:22:15.668Z,1.15
2023-01-23T02:24:32.961Z,1.13
2023-01-23T02:26:50.115Z,1.13
2023-01-23T02:29:07.413Z,1.12
2023-01-23T02:31:24.548Z,1.12
2023-01-23T02:33:41.909Z,1.12
2023-01-23T02:35:59.068Z,1.11
2023-01-23T02:38:17.234Z,1.15
2023-01-23T02:40:35.283Z,1.16
2023-01-23T02:42:52.588Z,1.16
2023-01-23T02:45:09.658Z,1.14
2023-01-23T02:47:29.454Z,1.17
2023-01-23T02:49:48.956Z,1.15
2023-01-23T02:52:05.993Z,1.15
2023-01-23T02:54:23.125Z,1.15
2023-01-23T02:56:40.161Z,1.14
2023-01-23T02:58:57.216Z,1.14
2023-01-23T03:01:14.499Z,1.15
2023-01-23T03:03:31.555Z,1.14
2023-01-23T03:05:48.537Z,1.14
2023-01-23T03:08:05.455Z,1.11
2023-01-23T03:10:22.581Z,1.11
2023-01-23T03:12:40.934Z,1.14
2023-01-23T03:14:58.019Z,1.13
2023-01-23T03:17:17.743Z,1.12
2023-01-23T03:19:37.493Z,1.09
2023-01-23T03:21:54.846Z,1.09
2023-01-23T03:24:12.088Z,1.10
2023-01-23T03:26:29.125Z,1.12
2023-01-23T03:28:47.425Z,1.08
2023-01-23T03:31:04.863Z,1.06
2023-01-23T03:33:21.947Z,1.03
2023-01-23T03:35:39.981Z,1.04
2023-01-23T03:37:57.368Z,1.04
2023-01-23T03:40:14.491Z,1.06
2023-01-23T03:42:31.650Z,1.07
2023-01-23T03:44:48.763Z,1.08
2023-01-23T03:47:08.479Z,1.04
2023-01-23T03:49:26.774Z,1.03
2023-01-23T03:51:44.754Z,1.03
2023-01-23T03:54:01.790Z,1.02
2023-01-23T03:56:18.859Z,1.00
2023-01-23T03:58:35.957Z,1.00
2023-01-23T04:00:53.068Z,0.98
2023-01-23T04:03:10.187Z,1.01
2023-01-23T04:05:27.781Z,1.00
2023-01-23T04:07:44.925Z,1.01
2023-01-23T04:10:02.219Z,1.00
2023-01-23T04:12:20.179Z,0.97
2023-01-23T04:14:37.161Z,0.96
2023-01-23T04:16:55.208Z,0.97
2023-01-23T04:19:12.263Z,1.00
2023-01-23T04:21:29.285Z,1.00
2023-01-23T04:23:46.537Z,0.99
2023-01-23T04:26:03.416Z,0.98
2023-01-23T04:28:20.339Z,0.97
2023-01-23T04:30:37.335Z,0.99
2023-01-23T04:32:54.369Z,0.99
2023-01-23T04:35:11.435Z,0.99
2023-01-23T04:37:28.668Z,0.97
2023-01-23T04:39:45.906Z,0.97
2023-01-23T04:42:02.965Z,0.95
2023-01-23T04:44:20.061Z,0.93
2023-01-23T04:46:37.142Z,0.94
2023-01-23T04:48:54.178Z,0.95
2023-01-23T04:51:11.489Z,0.93
2023-01-23T04:53:28.822Z,0.96
2023-01-23T04:55:45.795Z,0.96
2023-01-23T04:58:02.829Z,0.98
2023-01-23T05:00:20.187Z,0.98
2023-01-23T05:02:37.720Z,0.98
2023-01-23T05:04:55.975Z,1.00
2023-01-23T05:07:13.305Z,1.00
2023-01-23T05:09:30.506Z,1.00
2023-01-23T05:11:47.525Z,1.03
2023-01-23T05:14:05.077Z,1.03
2023-01-23T05:16:22.043Z,1.03
2023-01-23T05:18:39.341Z,1.03
2023-01-23T05:20:57.656Z,1.01
2023-01-23T05:23:14.709Z,1.04
2023-01-23T05:25:31.768Z,1.03
2023-01-23T05:27:48.980Z,1.04
2023-01-23T05:30:06.243Z,1.05
2023-01-23T05:32:23.246Z,1.05
2023-01-23T05:34:41.418Z,1.03
2023-01-23T05:36:58.698Z,1.03
2023-01-23T05:39:15.731Z,1.03
2023-01-23T05:41:32.712Z,1.05
2023-01-23T05:43:50.011Z,1.04
2023-01-23T05:46:08.022Z,1.03
2023-01-23T05:48:24.931Z,1.02
2023-01-23T05:50:42.218Z,1.03
2023-01-23T05:52:59.203Z,0.98
2023-01-23T05:55:16.501Z,0.99
2023-01-23T05:57:33.838Z,1.02
2023-01-23T05:59:50.884Z,1.00
2023-01-23T06:02:07.910Z,1.00
2023-01-23T06:04:25.182Z,1.00
2023-01-23T06:06:42.260Z,1.02
2023-01-23T06:08:59.196Z,1.02
2023-01-23T06:11:16.265Z,1.03
2023-01-23T06:13:33.264Z,0.99
2023-01-23T06:15:50.313Z,0.97
2023-01-23T06:18:07.377Z,0.98
2023-01-23T06:20:25.418Z,1.01
2023-01-23T06:22:42.473Z,1.03
2023-01-23T06:24:59.499Z,1.02
2023-01-23T06:27:16.811Z,0.99
2023-01-23T06:29:33.852Z,0.99
2023-01-23T06:31:50.960Z,0.98
2023-01-23T06:34:08.029Z,1.01
2023-01-23T06:36:25.316Z,0.99
2023-01-23T06:38:42.251Z,1.01
2023-01-23T06:40:59.234Z,1.02
2023-01-23T06:43:16.503Z,1.02
2023-01-23T06:45:33.773Z,1.02
2023-01-23T06:47:51.692Z,1.03
2023-01-23T06:50:08.703Z,1.02
2023-01-23T06:52:25.987Z,1.06
2023-01-23T06:54:43.002Z,1.06
2023-01-23T06:57:01.369Z,1.04
2023-01-23T06:59:18.683Z,1.06
2023-01-23T07:01:35.755Z,1.04
2023-01-23T07:03:53.079Z,1.04
2023-01-23T07:06:10.127Z,1.05
2023-01-23T07:08:27.120Z,1.06
2023-01-23T07:10:44.861Z,1.03
2023-01-23T07:13:01.842Z,1.05
2023-01-23T07:15:18.848Z,1.05
2023-01-23T07:17:35.790Z,1.05
2023-01-23T07:19:52.824Z,1.04
2023-01-23T07:22:09.827Z,1.03
2023-01-23T07:24:27.080Z,1.05
2023-01-23T07:26:44.134Z,1.07
2023-01-23T07:29:02.165Z,1.05
2023-01-23T07:31:19.537Z,1.04
2023-01-23T07:33:37.838Z,1.08
2023-01-23T07:35:55.183Z,1.07
2023-01-23T07:38:12.422Z,1.08
2023-01-23T07:40:29.481Z,1.07
2023-01-23T07:42:46.803Z,1.08
2023-01-23T07:45:04.643Z,1.09
2023-01-23T07:47:21.734Z,1.07
2023-01-23T07:49:38.803Z,1.09
2023-01-23T07:51:55.835Z,1.08
2023-01-23T07:54:12.830Z,1.09
2023-01-23T07:56:29.875Z,1.10
2023-01-23T07:58:46.903Z,1.11
2023-01-23T08:01:03.917Z,1.11
2023-01-23T08:03:20.875Z,1.13
2023-01-23T08:05:38.143Z,1.15
2023-01-23T08:08:11.385Z,1.18
2023-01-23T08:10:29.335Z,1.19
2023-01-23T08:12:47.490Z,1.19
2023-01-23T08:15:04.583Z,1.21
2023-01-23T08:17:21.662Z,1.23
2023-01-23T08:19:38.667Z,1.24
2023-01-23T08:21:55.685Z,1.22
2023-01-23T08:24:13.077Z,1.21
2023-01-23T08:26:30.073Z,1.24
2023-01-23T08:28:47.318Z,1.25
2023-01-23T08:31:06.567Z,1.26
2023-01-23T08:33:24.007Z,1.27
2023-01-23T08:35:42.024Z,1.27
2023-01-23T08:37:59.303Z,1.25
2023-01-23T08:40:17.531Z,1.26
2023-01-23T08:42:34.605Z,1.28
2023-01-23T08:44:51.671Z,1.25
2023-01-23T08:47:09.018Z,1.26
2023-01-23T08:49:26.230Z,1.33
2023-01-23T08:51:43.525Z,1.33
2023-01-23T08:54:00.549Z,1.35
2023-01-23T08:56:17.835Z,1.34
2023-01-23T08:58:34.756Z,1.34
2023-01-23T09:00:51.836Z,1.34
2023-01-23T09:03:11.096Z,1.32
2023-01-23T09:05:28.642Z,1.33
2023-01-23T09:07:45.543Z,1.36
2023-01-23T09:10:02.534Z,1.39
2023-01-23T09:12:19.769Z,1.39
2023-01-23T09:14:37.005Z,1.42
2023-01-23T09:16:54.089Z,1.40
2023-01-23T09:19:11.497Z,1.41
2023-01-23T09:21:28.508Z,1.45
2023-01-23T09:23:45.594Z,1.42
2023-01-23T09:26:02.799Z,1.48
2023-01-23T09:28:19.836Z,1.54
2023-01-23T09:30:36.792Z,1.54
2023-01-23T09:32:53.688Z,1.53
2023-01-23T09:35:10.731Z,1.62
2023-01-23T09:37:28.069Z,1.65
2023-01-23T09:39:44.934Z,1.66
2023-01-23T09:42:01.958Z,1.72
2023-01-23T09:44:19.273Z,1.81
2023-01-23T09:46:36.600Z,1.82
2023-01-23T09:48:53.546Z,1.80
2023-01-23T09:51:10.588Z,1.83
2023-01-23T09:53:27.915Z,1.79
2023-01-23T09:55:44.986Z,1.83
2023-01-23T09:58:02.204Z,1.81
2023-01-23T10:00:19.541Z,1.80
2023-01-23T10:02:37.825Z,1.78
2023-01-23T10:04:54.904Z,1.85
2023-01-23T10:07:11.891Z,1.93
2023-01-23T10:09:29.125Z,1.99
2023-01-23T10:11:46.382Z,1.96
2023-01-23T10:14:03.677Z,1.92
2023-01-23T10:16:20.752Z,1.90
2023-01-23T10:18:37.701Z,1.86
2023-01-23T10:20:54.704Z,1.86
2023-01-23T10:23:11.780Z,1.92
2023-01-23T10:25:28.744Z,2.02
2023-01-23T10:27:46.050Z,1.96
2023-01-23T10:30:03.121Z,1.96
2023-01-23T10:32:21.159Z,1.99
2023-01-23T10:34:38.451Z,2.00
2023-01-23T10:36:55.417Z,1.96
2023-01-23T10:39:12.689Z,2.02
2023-01-23T10:41:29.823Z,2.04
2023-01-23T10:43:47.132Z,2.04
2023-01-23T10:46:04.414Z,2.07
2023-01-23T10:48:21.716Z,1.99
2023-01-23T10:50:39.001Z,1.97
2023-01-23T10:52:55.998Z,1.92
2023-01-23T10:55:13.996Z,1.94
2023-01-23T10:57:31.037Z,1.94
2023-01-23T10:59:48.360Z,1.94
2023-01-23T11:02:05.634Z,1.93
2023-01-23T11:04:23.759Z,1.91
2023-01-23T11:06:40.794Z,1.95
2023-01-23T11:08:58.857Z,1.96
2023-01-23T11:11:16.140Z,1.93
2023-01-23T11:13:34.160Z,1.96
2023-01-23T11:15:51.205Z,2.02
2023-01-23T11:18:08.547Z,2.03
2023-01-23T11:20:25.538Z,2.01
2023-01-23T11:22:43.484Z,2.00
2023-01-23T11:25:00.694Z,2.03
2023-01-23T11:27:17.740Z,2.02
2023-01-23T11:29:38.099Z,2.06
2023-01-23T11:31:55.316Z,2.04
2023-01-23T11:34:13.813Z,2.03
2023-01-23T11:36:31.190Z,2.07
2023-01-23T11:38:52.735Z,2.05
2023-01-23T11:41:10.207Z,2.05
2023-01-23T11:43:28.158Z,2.07
2023-01-23T11:45:45.399Z,2.04
2023-01-23T11:48:02.730Z,1.96
2023-01-23T11:50:20.711Z,2.05
2023-01-23T11:52:37.730Z,2.04
2023-01-23T11:54:54.688Z,2.01
2023-01-23T11:57:11.969Z,2.16
2023-01-23T11:59:30.208Z,2.23
2023-01-23T12:01:58.426Z,2.14
2023-01-23T12:04:19.996Z,2.10
2023-01-23T12:06:36.947Z,2.07
2023-01-23T12:08:53.878Z,2.06
2023-01-23T12:11:11.197Z,2.11
2023-01-23T12:13:28.268Z,2.09
2023-01-23T12:15:45.526Z,2.19
2023-01-23T12:20:20.188Z,2.15
2023-01-23T12:22:37.538Z,2.14
2023-01-23T12:24:55.058Z,2.14
2023-01-23T12:27:11.982Z,2.08
2023-01-23T12:29:29.112Z,2.07
2023-01-23T12:31:47.710Z,2.11
2023-01-23T12:34:04.864Z,2.10
2023-01-23T12:36:22.040Z,2.08
2023-01-23T12:38:39.106Z,2.12
2023-01-23T12:40:57.112Z,2.21
2023-01-23T12:43:14.552Z,2.22
2023-01-23T12:45:31.996Z,2.21
2023-01-23T12:47:51.685Z,2.15
2023-01-23T12:50:08.821Z,2.15
2023-01-23T12:52:26.143Z,2.12
2023-01-23T12:54:43.530Z,2.07
2023-01-23T12:57:00.475Z,2.04
2023-01-23T12:59:21.948Z,2.09
2023-01-23T13:01:39.477Z,2.12
2023-01-23T13:03:56.802Z,2.15
2023-01-23T13:06:14.359Z,2.19
2023-01-23T13:08:37.847Z,2.16
2023-01-23T13:10:55.485Z,2.12
2023-01-23T13:13:12.462Z,2.15
2023-01-23T13:15:39.519Z,2.19
2023-01-23T13:17:57.342Z,2.09
2023-01-23T13:20:14.383Z,2.14
2023-01-23T13:22:32.691Z,2.21
2023-01-23T13:24:50.173Z,2.18
2023-01-23T13:27:07.539Z,2.15
2023-01-23T13:29:24.809Z,2.26
2023-01-23T13:31:42.022Z,2.28
2023-01-23T13:34:14.528Z,2.30
2023-01-23T13:36:40.311Z,2.26
2023-01-23T13:38:57.534Z,2.26
2023-01-23T13:41:14.638Z,2.34
2023-01-23T13:43:31.977Z,2.28
2023-01-23T13:45:50.307Z,2.21
2023-01-23T14:20:51.215Z,2.23
2023-01-23T14:23:09.549Z,2.27
2023-01-23T14:25:26.812Z,2.31
2023-01-23T14:27:52.895Z,2.34
2023-01-23T14:30:11.031Z,2.29
2023-01-23T14:32:28.063Z,2.30
2023-01-23T14:34:46.073Z,2.28
2023-01-23T14:37:03.043Z,2.26
2023-01-23T14:39:20.116Z,2.29
2023-01-23T14:41:41.184Z,2.28
2023-01-23T14:43:58.791Z,2.22
2023-01-23T14:46:15.801Z,2.20
2023-01-23T14:48:32.871Z,2.19
2023-01-23T14:50:49.823Z,2.25
2023-01-23T14:53:06.899Z,2.24
2023-01-23T14:55:29.897Z,2.24
2023-01-23T14:57:47.520Z,2.22
2023-01-23T15:00:04.789Z,2.21
2023-01-23T15:02:21.830Z,2.15
2023-01-23T15:04:38.838Z,2.12
2023-01-23T15:06:57.170Z,2.11
2023-01-23T15:09:14.254Z,2.08
2023-01-23T15:11:31.266Z,2.03
2023-01-23T15:13:48.559Z,1.97
2023-01-23T15:16:05.598Z,1.96
2023-01-23T15:18:22.543Z,1.98
2023-01-23T15:20:40.817Z,1.97
2023-01-23T15:22:58.138Z,2.04
2023-01-23T15:25:16.427Z,2.03
2023-01-23T15:27:33.434Z,2.06
2023-01-23T15:29:50.510Z,2.09
2023-01-23T15:32:08.595Z,2.18
2023-01-23T15:34:25.758Z,2.15
2023-01-23T15:36:42.734Z,2.14
2023-01-23T15:38:59.820Z,2.13
2023-01-23T15:41:23.772Z,2.12
2023-01-23T15:43:44.841Z,2.05
2023-01-23T15:46:01.964Z,2.07
2023-01-23T15:48:21.916Z,2.11
2023-01-23T15:50:38.922Z,2.07
2023-01-23T15:52:56.433Z,2.07
2023-01-23T15:55:13.554Z,1.98
2023-01-23T15:57:32.981Z,2.01
2023-01-23T15:59:52.712Z,2.10
2023-01-23T16:02:24.785Z,2.13
2023-01-23T16:04:46.662Z,2.07
2023-01-23T16:07:04.931Z,1.99
2023-01-23T16:09:22.209Z,1.89
2023-01-23T16:11:39.147Z,1.83
2023-01-23T16:13:58.685Z,1.81
2023-01-23T16:16:17.042Z,1.86
2023-01-23T16:18:34.171Z,1.98
2023-01-23T16:20:51.273Z,1.94
2023-01-23T16:23:14.535Z,1.90
2023-01-23T16:25:43.357Z,1.91
2023-01-23T16:28:03.274Z,1.81
2023-01-23T16:30:20.306Z,1.79
2023-01-23T16:32:38.711Z,1.77
2023-01-23T16:34:55.865Z,1.71
2023-01-23T16:37:12.938Z,1.69
2023-01-23T16:39:30.023Z,1.65
2023-01-23T16:41:47.125Z,1.57
2023-01-23T16:44:04.395Z,1.54
2023-01-23T16:46:21.811Z,1.50
2023-01-23T16:48:39.209Z,1.47
2023-01-23T16:50:56.344Z,1.45
2023-01-23T16:53:13.373Z,1.44
2023-01-23T16:55:30.809Z,1.35
2023-01-23T16:57:48.981Z,1.33
2023-01-23T17:00:06.092Z,1.26
2023-01-23T17:02:23.380Z,1.25
2023-01-23T17:04:40.694Z,1.20
2023-01-23T17:06:57.706Z,1.22
2023-01-23T17:09:15.125Z,1.20
2023-01-23T17:11:32.190Z,1.20
2023-01-23T17:13:49.573Z,1.23
2023-01-23T17:16:21.866Z,1.20
2023-01-23T17:18:43.600Z,1.18
2023-01-23T17:21:00.647Z,1.15
2023-01-23T17:23:17.681Z,1.17
2023-01-23T17:25:35.406Z,1.17
2023-01-23T17:28:11.587Z,1.18
2023-01-23T17:30:29.359Z,1.25
2023-01-23T17:32:46.302Z,1.24
2023-01-23T17:35:03.541Z,1.25
2023-01-23T17:37:20.591Z,1.26
2023-01-23T17:39:37.625Z,1.27
2023-01-23T17:41:54.566Z,1.23
2023-01-23T17:44:11.731Z,1.25
2023-01-23T17:46:30.080Z,1.22
2023-01-23T17:48:48.172Z,1.26
2023-01-23T17:51:05.224Z,1.26
2023-01-23T17:53:22.512Z,1.25
2023-01-23T17:55:40.161Z,1.25
2023-01-23T17:57:58.321Z,1.27
2023-01-23T18:00:15.241Z,1.23
2023-01-23T18:02:32.302Z,1.26
2023-01-23T18:04:49.353Z,1.31
2023-01-23T18:07:06.568Z,1.32
2023-01-23T18:09:23.641Z,1.30
2023-01-23T18:11:41.820Z,1.28
2023-01-23T18:14:00.016Z,1.25
2023-01-23T18:16:17.323Z,1.23
2023-01-23T18:18:34.247Z,1.27
2023-01-23T18:20:51.597Z,1.28
2023-01-23T18:23:09.783Z,1.33
2023-01-23T18:25:27.101Z,1.28
2023-01-23T18:27:45.166Z,1.22
2023-01-23T18:30:02.220Z,1.16
2023-01-23T18:32:19.225Z,1.12
2023-01-23T18:34:36.259Z,1.05
2023-01-23T18:36:53.336Z,1.04
2023-01-23T18:39:10.651Z,0.98
2023-01-23T18:41:27.721Z,0.93
2023-01-23T18:43:46.047Z,0.91
2023-01-23T18:46:03.014Z,0.89
2023-01-23T18:48:25.495Z,0.90
2023-01-23T18:50:42.734Z,0.86
2023-01-23T18:53:00.015Z,0.89
2023-01-23T18:55:17.306Z,0.90
2023-01-23T18:57:34.296Z,0.89
2023-01-23T18:59:51.318Z,0.92
2023-01-23T19:02:08.904Z,0.89
2023-01-23T19:04:26.055Z,0.83
2023-01-23T19:06:43.189Z,0.76
2023-01-23T19:09:01.140Z,0.76
2023-01-23T19:11:18.454Z,0.65
2023-01-23T19:13:35.525Z,0.71
2023-01-23T19:15:52.830Z,0.64
2023-01-23T19:18:09.799Z,0.58
2023-01-23T19:20:27.107Z,0.50
2023-01-23T19:22:44.039Z,0.49
2023-01-23T19:25:00.978Z,0.46
2023-01-23T19:27:18.237Z,0.40
2023-01-23T19:29:35.261Z,0.38
2023-01-23T19:32:05.047Z,0.32
2023-01-23T19:34:24.076Z,0.29
2023-01-23T19:36:41.097Z,0.23
2023-01-23T19:38:59.304Z,0.24
2023-01-23T19:41:16.536Z,0.22
2023-01-23T19:43:33.528Z,0.20
2023-01-23T19:45:51.525Z,0.12
2023-01-23T19:48:08.441Z,0.13
2023-01-23T19:50:26.453Z,0.08
2023-01-23T19:52:43.624Z,0.03
2023-01-23T19:55:00.914Z,0.07
2023-01-23T19:57:18.046Z,0.00
2023-01-23T19:59:35.317Z,-0.09
2023-01-23T20:01:52.304Z,-0.13
2023-01-23T20:04:09.362Z,-0.11
2023-01-23T20:06:26.344Z,-0.15
2023-01-23T20:08:43.399Z,-0.12
2023-01-23T20:11:00.757Z,-0.06
2023-01-23T20:13:18.059Z,-0.02
2023-01-23T20:15:35.122Z,-0.05
2023-01-23T20:17:52.173Z,-0.13
2023-01-23T20:20:09.503Z,-0.16
2023-01-23T20:22:26.514Z,-0.05
2023-01-23T20:24:43.490Z,-0.13
2023-01-23T20:27:00.505Z,-0.21
2023-01-23T20:29:17.705Z,-0.22
2023-01-23T20:31:34.923Z,-0.28
2023-01-23T20:33:52.381Z,-0.34
2023-01-23T20:36:09.459Z,-0.32
2023-01-23T20:38:26.746Z,-0.34
2023-01-23T20:40:43.824Z,-0.25
2023-01-23T20:43:00.938Z,-0.25
2023-01-23T20:45:17.996Z,-0.32
2023-01-23T20:47:36.232Z,-0.44
2023-01-23T20:49:53.322Z,-0.45
2023-01-23T20:52:10.568Z,-0.34
2023-01-23T20:54:27.552Z,-0.33
2023-01-23T20:56:45.931Z,-0.32
2023-01-23T20:59:02.909Z,-0.39
2023-01-23T21:01:20.283Z,-0.42
2023-01-23T21:03:37.682Z,-0.42
2023-01-23T21:05:55.196Z,-0.34
2023-01-23T21:08:12.517Z,-0.35
2023-01-23T21:10:30.851Z,-0.31
2023-01-23T21:12:48.511Z,-0.23
2023-01-23T21:15:05.837Z,-0.20
2023-01-23T21:17:23.893Z,-0.14
2023-01-23T21:19:41.011Z,-0.05
2023-01-23T21:21:58.100Z,-0.09
2023-01-23T21:24:15.184Z,-0.01
2023-01-23T21:26:33.508Z,-0.04
2023-01-23T21:28:50.755Z,0.01
2023-01-23T21:31:08.909Z,0.00
2023-01-23T21:33:26.356Z,0.03
2023-01-23T21:35:43.479Z,0.06
2023-01-23T21:38:00.575Z,0.12
2023-01-23T21:40:17.557Z,0.14
2023-01-23T21:42:34.853Z,0.14
2023-01-23T21:44:51.833Z,0.15
2023-01-23T21:47:08.845Z,0.21
2023-01-23T21:49:25.803Z,0.22
2023-01-23T21:51:42.795Z,0.22
2023-01-23T21:53:59.825Z,0.26
2023-01-23T21:56:17.564Z,0.38
2023-01-23T21:58:35.801Z,0.36
2023-01-23T22:00:53.218Z,0.32
2023-01-23T22:03:11.261Z,0.32
2023-01-23T22:05:28.628Z,0.33
2023-01-23T22:07:45.686Z,0.38
2023-01-23T22:10:02.845Z,0.41
2023-01-23T22:12:21.198Z,0.39
2023-01-23T22:14:38.265Z,0.43
2023-01-23T22:16:56.592Z,0.42
2023-01-23T22:19:15.784Z,0.41
2023-01-23T22:21:33.063Z,0.42
2023-01-23T22:23:50.361Z,0.45
2023-01-23T22:26:08.413Z,0.47
2023-01-23T22:28:26.299Z,0.50
2023-01-23T22:30:43.578Z,0.46
2023-01-23T22:33:00.682Z,0.51
2023-01-23T22:35:18.044Z,0.51
2023-01-23T22:37:35.376Z,0.57
2023-01-23T22:39:52.456Z,0.56
2023-01-23T22:42:10.792Z,0.55
2023-01-23T22:44:27.831Z,0.56
2023-01-23T22:46:45.135Z,0.57
2023-01-23T22:49:02.199Z,0.61
2023-01-23T22:51:19.505Z,0.62
2023-01-23T22:53:36.829Z,0.66
2023-01-23T22:55:53.938Z,0.65
2023-01-23T22:58:11.018Z,0.65
2023-01-23T23:00:28.480Z,0.66
2023-01-23T23:02:45.577Z,0.68
2023-01-23T23:05:02.568Z,0.72
2023-01-23T23:07:19.645Z,0.71
2023-01-23T23:09:36.988Z,0.71
2023-01-23T23:11:54.410Z,0.72
2023-01-23T23:14:11.688Z,0.71
2023-01-23T23:16:28.868Z,0.73
2023-01-23T23:18:47.013Z,0.73
2023-01-23T23:21:03.984Z,0.76
2023-01-23T23:23:21.504Z,0.77
2023-01-23T23:25:38.649Z,0.79
2023-01-23T23:27:56.134Z,0.83
2023-01-23T23:30:14.064Z,0.84
2023-01-23T23:32:31.151Z,0.82
2023-01-23T23:34:48.224Z,0.81
2023-01-23T23:37:05.259Z,0.82
2023-01-23T23:39:22.536Z,0.83
2023-01-23T23:41:39.642Z,0.83
2023-01-23T23:43:56.713Z,0.83
2023-01-23T23:46:14.098Z,0.82
2023-01-23T23:48:31.203Z,0.83
2023-01-23T23:50:48.352Z,0.85
2023-01-23T23:53:05.733Z,0.87
2023-01-23T23:55:23.390Z,0.85
2023-01-23T23:57:41.102Z,0.88
2023-01-23T23:59:58.693Z,0.88
